Time;durP1;ratioP1;P1;durP2;ratioP2;P2;SDS_P1;SDS_P2;PMS_P1;PMS_P2;Temp;Humidity;BMP_temperature;BMP_pressure;BME280_temperature;BME280_humidity;BME280_pressure;Samples;Min_cycle;Max_cycle;Signal;HPM_P1;HPM_P2
2022/06/03 00:02:09;;;;;;;1.45;1.20;;;;;;;20.47;50.77;102091.78;5125335;27;20034;-62
2022/06/03 00:05:03;;;;;;;2.08;1.20;;;;;;;20.47;50.53;102088.22;5109453;28;20050;-61
2022/06/03 00:07:40;;;;;;;1.60;1.20;;;;;;;20.46;50.34;102097.34;5112223;28;20480;-61
2022/06/03 00:10:27;;;;;;;1.23;1.08;;;;;;;20.47;50.51;102093.63;5100248;28;20047;-62
2022/06/03 00:12:58;;;;;;;1.48;1.20;;;;;;;20.47;50.67;102099.03;5117457;28;20024;-61
2022/06/03 00:15:29;;;;;;;0.95;0.90;;;;;;;20.46;50.75;102098.19;5098051;28;20066;-62
2022/06/03 00:18:13;;;;;;;1.13;0.90;;;;;;;20.45;50.52;102085.69;5118336;28;20043;-62
2022/06/03 00:20:51;;;;;;;0.95;0.85;;;;;;;20.46;50.86;102081.13;5106917;28;20043;-61
2022/06/03 00:23:25;;;;;;;1.52;1.02;;;;;;;20.46;50.50;102081.13;5114510;28;20022;-62
2022/06/03 00:26:19;;;;;;;1.65;1.27;;;;;;;20.45;50.51;102085.69;5095078;28;20046;-61
2022/06/03 00:28:57;;;;;;;1.13;0.98;;;;;;;20.44;50.73;102075.03;5109829;28;20045;-61
2022/06/03 00:31:37;;;;;;;2.35;1.15;;;;;;;20.44;50.64;102083.97;5092786;28;20035;-62
2022/06/03 00:34:21;;;;;;;1.25;0.90;;;;;;;20.44;50.80;102078.59;5110080;28;20031;-61
2022/06/03 00:36:52;;;;;;;0.65;0.65;;;;;;;20.44;50.71;102072.34;5109169;28;20100;-61
2022/06/03 00:39:54;;;;;;;1.38;0.85;;;;;;;20.43;50.52;102068.78;5115943;28;20074;-61
2022/06/03 00:42:54;;;;;;;1.95;1.02;;;;;;;20.40;50.67;102066.38;5117828;28;20012;-62
2022/06/03 00:45:30;;;;;;;1.23;1.13;;;;;;;20.42;50.34;102067.06;5117184;28;20023;-62
2022/06/03 00:48:14;;;;;;;1.30;1.10;;;;;;;20.43;50.52;102070.59;5095744;28;20030;-62
2022/06/03 00:51:07;;;;;;;2.65;1.00;;;;;;;20.42;50.36;102067.06;5105772;28;20044;-61
2022/06/03 00:54:20;;;;;;;1.25;1.00;;;;;;;20.42;50.52;102064.34;5117015;28;20030;-61
2022/06/03 00:57:01;;;;;;;1.17;0.98;;;;;;;20.42;50.71;102061.66;5020718;28;20033;-62
2022/06/03 00:59:54;;;;;;;1.27;1.10;;;;;;;20.41;50.75;102065.38;5004099;28;20037;-62
2022/06/03 01:02:26;;;;;;;2.10;0.98;;;;;;;20.41;50.88;102065.38;5021947;28;20445;-62
2022/06/03 01:05:04;;;;;;;1.00;0.90;;;;;;;20.38;50.46;102056.72;5027869;28;20060;-62
2022/06/03 01:07:52;;;;;;;1.02;0.98;;;;;;;20.40;50.66;102058.28;5016207;28;20053;-61
2022/06/03 01:10:48;;;;;;;1.60;1.30;;;;;;;20.40;50.50;102065.53;5036370;28;20022;-61
2022/06/03 01:13:50;;;;;;;1.52;1.20;;;;;;;20.40;50.64;102057.44;5023622;28;20038;-61
2022/06/03 01:16:21;;;;;;;1.77;1.05;;;;;;;20.39;50.80;102063.81;5033730;28;20069;-61
2022/06/03 01:19:00;;;;;;;2.13;1.05;;;;;;;20.39;50.50;102061.09;5024306;28;20040;-61
2022/06/03 01:22:04;;;;;;;1.20;1.10;;;;;;;20.39;50.56;102061.09;5001396;28;20034;-61
2022/06/03 01:24:56;;;;;;;1.70;1.30;;;;;;;20.39;50.86;102063.81;5023590;28;20030;-61
2022/06/03 01:27:27;;;;;;;0.90;0.90;;;;;;;20.37;50.43;102055.88;5014557;28;20038;-61
2022/06/03 01:30:06;;;;;;;1.77;1.20;;;;;;;20.37;50.60;102058.56;5020738;28;20037;-61
2022/06/03 01:32:52;;;;;;;1.25;0.90;;;;;;;20.37;50.65;102057.72;5050115;28;20207;-61
2022/06/03 01:35:48;;;;;;;1.15;1.05;;;;;;;20.37;50.63;102060.41;5116932;28;20517;-61
2022/06/03 01:38:45;;;;;;;1.85;1.50;;;;;;;20.36;50.75;102064.97;5116595;28;20032;-61
2022/06/03 01:41:43;;;;;;;1.10;1.00;;;;;;;20.34;50.55;102056.16;5112630;28;20071;-61
2022/06/03 01:44:26;;;;;;;1.92;1.50;;;;;;;20.35;50.61;102060.59;5109943;28;20034;-61
2022/06/03 01:47:29;;;;;;;3.53;1.17;;;;;;;20.37;50.39;102060.41;5090606;28;20032;-61
2022/06/03 01:50:03;;;;;;;1.40;1.00;;;;;;;20.34;50.34;102058.00;5113068;28;20024;-60
2022/06/03 01:52:53;;;;;;;1.48;1.20;;;;;;;20.34;50.25;102058.00;5121243;28;20020;-61
2022/06/03 01:55:40;;;;;;;1.63;1.13;;;;;;;20.33;49.96;102051.75;5120801;28;20023;-61
2022/06/03 01:58:10;;;;;;;1.10;1.00;;;;;;;20.33;50.00;102053.63;5117496;28;20022;-61
2022/06/03 02:00:41;;;;;;;1.25;1.10;;;;;;;20.32;49.69;102050.06;5103797;28;20023;-61
2022/06/03 02:03:35;;;;;;;1.92;1.20;;;;;;;20.32;50.40;102047.38;5092359;28;20023;-61
2022/06/03 02:06:38;;;;;;;2.00;1.10;;;;;;;20.32;50.05;102049.22;5118387;28;20027;-61
2022/06/03 02:09:15;;;;;;;2.13;1.50;;;;;;;20.32;49.97;102052.78;5120925;28;20027;-61
2022/06/03 02:12:03;;;;;;;1.70;1.13;;;;;;;20.31;49.65;102051.06;5102498;28;20109;-61
2022/06/03 02:15:14;;;;;;;1.30;1.20;;;;;;;20.32;49.42;102043.81;5091002;28;20111;-61
2022/06/03 02:18:22;;;;;;;1.05;1.00;;;;;;;20.31;49.05;102037.56;5088301;28;20473;-61
2022/06/03 02:21:10;;;;;;;1.27;1.13;;;;;;;20.30;49.24;102030.44;5105817;28;20036;-61
2022/06/03 02:23:39;;;;;;;1.07;0.87;;;;;;;20.31;49.07;102028.63;5106125;28;20045;-61
2022/06/03 02:26:07;;;;;;;1.10;1.00;;;;;;;20.29;49.27;102026.06;5106339;28;20042;-61
2022/06/03 02:28:39;;;;;;;1.83;0.90;;;;;;;20.31;48.82;102020.53;5105923;28;20107;-61
2022/06/03 02:31:19;;;;;;;1.40;0.90;;;;;;;20.29;48.57;102020.66;5116995;28;20610;-61
2022/06/03 02:34:07;;;;;;;1.77;1.20;;;;;;;20.30;49.33;102019.63;5071664;28;20016;-61
2022/06/03 02:37:03;;;;;;;1.15;0.93;;;;;;;20.31;48.65;102012.41;5106013;28;20016;-61
2022/06/03 02:39:46;;;;;;;1.45;1.02;;;;;;;20.25;48.51;101996.81;5115549;28;20051;-61
2022/06/03 02:42:23;;;;;;;1.02;0.80;;;;;;;20.29;48.53;101998.19;5111770;28;20020;-61
2022/06/03 02:45:07;;;;;;;1.30;1.00;;;;;;;20.29;48.64;101995.50;5113321;28;20032;-61
2022/06/03 02:48:00;;;;;;;1.50;1.00;;;;;;;20.29;48.62;102001.75;5119871;28;20016;-61
2022/06/03 02:50:52;;;;;;;1.70;1.00;;;;;;;20.28;48.33;101997.34;5106637;28;20016;-61
2022/06/03 02:53:41;;;;;;;2.15;1.00;;;;;;;20.28;48.26;101994.66;5096718;28;20024;-61
2022/06/03 02:56:17;;;;;;;2.25;1.10;;;;;;;20.28;48.65;101996.50;5112051;28;20039;-61
2022/06/03 02:59:08;;;;;;;2.30;1.52;;;;;;;20.28;48.65;102001.91;5093547;28;20020;-61
2022/06/03 03:01:52;;;;;;;1.25;1.00;;;;;;;20.27;48.82;102006.47;5114362;28;20031;-61
2022/06/03 03:04:35;;;;;;;1.75;1.13;;;;;;;20.27;48.32;102005.63;5111746;27;20031;-61
2022/06/03 03:07:23;;;;;;;1.15;0.90;;;;;;;20.25;48.14;102003.03;5117993;28;20026;-61
2022/06/03 03:10:09;;;;;;;1.00;0.90;;;;;;;20.25;48.00;102003.03;5108343;27;20043;-61
2022/06/03 03:13:07;;;;;;;0.80;0.80;;;;;;;20.25;48.46;102005.75;5115402;27;20027;-61
2022/06/03 03:15:44;;;;;;;1.00;0.88;;;;;;;20.25;47.89;102005.75;5084919;28;20654;-60
2022/06/03 03:18:24;;;;;;;1.30;1.08;;;;;;;20.24;48.35;102014.84;5110209;28;20023;-61
2022/06/03 03:21:11;;;;;;;1.30;1.10;;;;;;;20.24;48.54;102004.06;5112435;28;20031;-61
2022/06/03 03:23:46;;;;;;;1.38;0.90;;;;;;;20.24;48.23;101993.25;5113094;28;20024;-61
2022/06/03 03:26:24;;;;;;;1.10;1.00;;;;;;;20.23;48.05;102002.38;5111052;28;20051;-61
2022/06/03 03:29:23;;;;;;;2.60;1.52;;;;;;;20.23;48.28;101996.97;5098243;28;20020;-61
2022/06/03 03:32:23;;;;;;;1.20;1.00;;;;;;;20.22;47.90;102001.50;5104746;28;20027;-61
2022/06/03 03:35:24;;;;;;;1.38;0.90;;;;;;;20.23;47.89;101994.25;5104072;28;20020;-61
2022/06/03 03:38:18;;;;;;;1.10;1.00;;;;;;;20.22;48.21;102003.38;5104935;28;20038;-61
2022/06/03 03:40:49;;;;;;;1.40;1.10;;;;;;;20.22;48.23;101996.13;5074815;28;20510;-61
2022/06/03 03:43:30;;;;;;;1.58;1.08;;;;;;;20.22;47.98;102000.66;5104229;28;20035;-61
2022/06/03 03:46:13;;;;;;;2.20;1.20;;;;;;;20.22;48.42;102003.38;5104163;28;20031;-61
2022/06/03 03:48:52;;;;;;;1.02;0.90;;;;;;;20.20;48.29;102005.34;5104280;28;20119;-60
2022/06/03 03:51:30;;;;;;;;;;;;;;;20.21;48.15;102004.34;5098897;28;20034;-61
2022/06/03 03:54:13;;;;;;;1.73;1.20;;;;;;;20.18;48.31;102002.81;5110754;28;19908;-60
2022/06/03 03:56:53;;;;;;;1.70;1.13;;;;;;;20.19;48.25;102007.22;5110873;28;20035;-60
2022/06/03 03:59:54;;;;;;;1.70;1.35;;;;;;;20.18;48.71;101993.88;5112360;28;20043;-61
2022/06/03 04:02:41;;;;;;;1.58;1.20;;;;;;;20.18;48.57;101988.47;5110134;28;20026;-61
2022/06/03 04:05:38;;;;;;;1.75;0.90;;;;;;;20.05;48.28;101960.94;5112584;28;20047;-61
2022/06/03 04:08:20;;;;;;;1.40;0.95;;;;;;;20.18;48.45;101991.16;5106261;28;20036;-61
2022/06/03 04:11:01;;;;;;;1.40;1.27;;;;;;;20.17;48.98;101987.59;5114051;27;20030;-61
2022/06/03 04:13:46;;;;;;;1.20;1.10;;;;;;;20.16;48.46;101991.31;5090725;28;20028;-60
2022/06/03 04:16:36;;;;;;;3.33;1.70;;;;;;;20.16;49.03;101985.91;5108941;28;20032;-60
2022/06/03 04:19:15;;;;;;;2.00;1.15;;;;;;;20.16;48.56;101985.91;5112196;28;20030;-60
2022/06/03 04:21:59;;;;;;;1.63;1.20;;;;;;;20.16;49.47;101982.34;5094434;28;20020;-60
2022/06/03 04:24:51;;;;;;;1.75;1.25;;;;;;;20.15;49.72;101968.00;5118231;28;20046;-61
2022/06/03 04:27:19;;;;;;;1.48;1.35;;;;;;;20.16;50.18;101976.94;5116592;28;20034;-61
2022/06/03 04:30:24;;;;;;;1.70;1.27;;;;;;;20.15;50.47;101977.97;5107551;28;20032;-60
2022/06/03 04:33:13;;;;;;;1.27;1.10;;;;;;;20.14;49.73;101968.16;5078951;28;20031;-60
2022/06/03 04:36:00;;;;;;;1.60;1.50;;;;;;;20.14;50.24;101962.78;5111443;28;20029;-61
2022/06/03 04:38:47;;;;;;;2.17;1.42;;;;;;;20.14;50.33;101968.16;5093598;28;20087;-61
2022/06/03 04:41:24;;;;;;;1.75;1.20;;;;;;;20.13;50.54;101964.59;5105971;28;20051;-61
2022/06/03 04:44:27;;;;;;;2.05;1.38;;;;;;;20.14;50.73;101965.47;5103239;28;20039;-60
2022/06/03 04:47:01;;;;;;;2.42;1.60;;;;;;;20.13;50.75;101963.75;5106771;28;20100;-61
2022/06/03 04:49:45;;;;;;;2.58;1.48;;;;;;;20.12;50.80;101960.19;5108346;28;20028;-60
2022/06/03 04:52:19;;;;;;;2.20;2.00;;;;;;;20.13;50.87;101961.03;5106914;28;20032;-60
2022/06/03 04:54:53;;;;;;;2.03;1.13;;;;;;;20.12;50.79;101962.91;5111810;28;20634;-60
2022/06/03 04:57:24;;;;;;;1.85;1.73;;;;;;;20.12;51.08;101962.06;5110686;28;20586;-61
2022/06/03 05:00:05;;;;;;;1.80;1.55;;;;;;;20.12;51.11;101956.66;5116659;28;20027;-60
2022/06/03 05:02:51;;;;;;;2.40;1.20;;;;;;;20.12;50.54;101960.19;5076871;28;20023;-61
2022/06/03 05:05:17;;;;;;;2.78;1.55;;;;;;;20.12;50.78;101956.66;5104463;28;20040;-61
2022/06/03 05:08:00;;;;;;;1.70;1.60;;;;;;;20.12;51.06;101940.47;5109053;28;20024;-60
2022/06/03 05:10:56;;;;;;;1.92;1.45;;;;;;;20.11;51.10;101939.59;5097872;28;20398;-60
2022/06/03 05:14:00;;;;;;;3.10;1.70;;;;;;;20.11;51.19;101936.91;5107343;28;20024;-61
2022/06/03 05:16:47;;;;;;;1.92;1.45;;;;;;;20.10;51.27;101937.91;5068020;28;20031;-60
2022/06/03 05:19:30;;;;;;;2.42;1.40;;;;;;;20.10;51.11;101937.91;5102503;28;20074;-60
2022/06/03 05:22:08;;;;;;;1.88;1.50;;;;;;;20.09;51.13;101930.81;5104049;28;20028;-60
2022/06/03 05:25:02;;;;;;;1.40;1.30;;;;;;;20.09;51.09;101936.22;5107812;28;20092;-61
2022/06/03 05:27:46;;;;;;;2.63;1.50;;;;;;;20.09;51.21;101936.22;5089899;28;20028;-60
2022/06/03 05:30:17;;;;;;;1.98;1.35;;;;;;;20.11;50.93;101944.16;5100058;28;20026;-60
2022/06/03 05:32:57;;;;;;;2.58;1.35;;;;;;;20.11;50.98;101936.06;5107934;28;20052;-60
2022/06/03 05:35:52;;;;;;;2.47;1.50;;;;;;;20.10;51.02;101937.91;5089908;28;20073;-60
2022/06/03 05:38:42;;;;;;;1.73;1.50;;;;;;;20.12;50.92;101940.47;5112077;28;20091;-60
2022/06/03 05:44:15;;;;;;;2.22;1.67;;;;;;;20.11;50.73;101942.31;5109354;28;20045;-60
2022/06/03 05:47:00;;;;;;;1.50;1.20;;;;;;;20.12;51.01;101954.81;5111335;28;20065;-60
2022/06/03 05:49:34;;;;;;;1.10;1.00;;;;;;;20.11;50.87;101954.97;5116448;28;20038;-60
2022/06/03 05:52:24;;;;;;;1.85;1.73;;;;;;;20.11;50.37;101953.09;5085863;28;20024;-54
2022/06/03 05:55:02;;;;;;;2.65;1.48;;;;;;;20.11;50.48;101949.56;5094700;28;20024;-54
2022/06/03 05:57:36;;;;;;;2.53;1.30;;;;;;;20.12;50.52;101945.84;5091006;28;20412;-49
2022/06/03 06:00:13;;;;;;;2.60;1.30;;;;;;;20.12;50.66;101949.41;5098785;28;20080;-56
2022/06/03 06:02:52;;;;;;;1.55;1.25;;;;;;;20.13;50.45;101948.41;5109490;28;20039;-52
2022/06/03 06:05:56;;;;;;;1.85;1.33;;;;;;;20.12;50.75;101952.09;5091758;28;20047;-55
2022/06/03 06:08:25;;;;;;;1.50;1.10;;;;;;;20.12;50.67;101946.69;5108899;28;20023;-53
2022/06/03 06:11:30;;;;;;;1.50;1.27;;;;;;;20.13;50.79;101953.78;5092484;28;20066;-55
2022/06/03 06:14:22;;;;;;;2.25;1.60;;;;;;;20.13;50.77;101942.16;5093532;27;20102;-54
2022/06/03 06:16:47;;;;;;;1.60;1.50;;;;;;;20.11;50.80;101936.06;5110511;28;20032;-57
2022/06/03 06:19:25;;;;;;;1.65;1.50;;;;;;;20.13;50.80;101944.84;5103936;28;20085;-53
2022/06/03 06:22:09;;;;;;;1.48;1.17;;;;;;;20.14;50.63;101941.16;5098203;28;20042;-56
2022/06/03 06:24:34;;;;;;;2.40;1.25;;;;;;;20.14;50.59;101935.78;5087738;28;20081;-54
2022/06/03 06:27:18;;;;;;;1.77;1.23;;;;;;;20.13;50.48;101931.34;5111324;28;20019;-56
2022/06/03 06:30:36;;;;;;;1.55;1.30;;;;;;;20.15;50.38;101940.16;5113298;28;20058;-57
2022/06/03 06:33:12;;;;;;;1.95;1.27;;;;;;;20.15;50.44;101948.25;5102847;28;20104;-55
2022/06/03 06:35:56;;;;;;;2.22;1.20;;;;;;;20.15;50.41;101945.56;5110191;28;20510;-57
2022/06/03 06:38:27;;;;;;;2.03;1.20;;;;;;;20.15;50.41;101948.25;5100795;28;20042;-52
2022/06/03 06:41:14;;;;;;;1.83;1.35;;;;;;;20.16;50.73;101947.25;5103701;28;20126;-56
2022/06/03 06:43:49;;;;;;;2.85;1.63;;;;;;;20.15;50.22;101954.50;5093388;28;20024;-54
2022/06/03 06:46:29;;;;;;;2.67;1.60;;;;;;;20.15;49.85;101957.22;5095802;28;20023;-56
2022/06/03 06:49:00;;;;;;;1.88;1.67;;;;;;;20.16;50.25;101958.06;5093349;28;20024;-56
2022/06/03 06:51:46;;;;;;;2.35;1.77;;;;;;;20.16;49.96;101963.47;5110927;28;20038;-56
2022/06/03 06:54:24;;;;;;;2.75;1.42;;;;;;;20.16;49.39;101969.69;5104325;28;20484;-54
2022/06/03 06:56:55;;;;;;;2.47;1.98;;;;;;;20.15;49.36;101964.47;5092154;28;20020;-55
2022/06/03 06:59:24;;;;;;;2.45;1.50;;;;;;;20.11;49.78;101955.81;5090372;28;20016;-54
2022/06/03 07:02:14;;;;;;;2.35;1.58;;;;;;;20.17;49.67;101967.84;5088323;28;20031;-57
2022/06/03 07:04:46;;;;;;;3.22;1.40;;;;;;;20.17;49.49;101965.16;5114769;27;20015;-58
2022/06/03 07:07:30;;;;;;;1.63;1.23;;;;;;;20.17;49.41;101960.59;5106872;28;20461;-51
2022/06/03 07:10:08;;;;;;;1.67;1.50;;;;;;;20.15;49.62;101954.50;5112332;27;20054;-53
2022/06/03 07:12:39;;;;;;;1.95;1.70;;;;;;;20.18;49.52;101954.22;5105408;28;20092;-54
2022/06/03 07:15:25;;;;;;;1.30;1.20;;;;;;;20.19;49.60;101960.47;5096842;28;20031;-52
2022/06/03 07:21:23;;;;;;;1.50;1.40;;;;;;;20.19;50.16;101955.91;5102377;28;20043;-51
2022/06/03 07:23:51;;;;;;;1.23;1.13;;;;;;;20.15;49.98;101942.88;5114263;27;20024;-52
2022/06/03 07:26:35;;;;;;;1.90;1.40;;;;;;;20.21;50.03;101939.53;5093495;28;20051;-50
2022/06/03 07:29:03;;;;;;;2.22;1.60;;;;;;;20.22;50.13;101938.56;5107511;27;20027;-55
2022/06/03 07:31:50;;;;;;;2.05;1.55;;;;;;;20.22;50.20;101936.72;5091203;28;20118;-51
2022/06/03 07:34:30;;;;;;;2.45;1.35;;;;;;;20.24;49.97;101939.25;5109159;27;20039;-53
2022/06/03 07:37:23;;;;;;;2.25;1.40;;;;;;;20.24;49.82;101936.53;5112602;28;20031;-50
2022/06/03 07:40:16;;;;;;;2.53;1.35;;;;;;;20.25;49.89;101938.22;5106512;28;20052;-53
2022/06/03 07:42:51;;;;;;;2.53;1.38;;;;;;;20.26;50.05;101939.09;5108756;28;20028;-55
2022/06/03 07:45:40;;;;;;;1.80;1.30;;;;;;;20.27;49.85;101935.41;5098367;28;20157;-52
2022/06/03 07:48:11;;;;;;;2.97;1.40;;;;;;;20.28;49.61;101939.78;5094139;28;20078;-51
2022/06/03 07:50:43;;;;;;;2.20;1.67;;;;;;;20.29;49.25;101927.97;5107222;28;20028;-53
2022/06/03 07:53:28;;;;;;;1.95;1.48;;;;;;;20.32;49.77;101936.63;5088446;28;20576;-53
2022/06/03 07:55:56;;;;;;;1.83;1.50;;;;;;;20.33;49.47;101935.63;5089693;28;20613;-51
2022/06/03 07:58:24;;;;;;;2.13;1.40;;;;;;;20.35;49.32;101930.94;5088583;28;20019;-52
2022/06/03 08:00:50;;;;;;;3.00;1.35;;;;;;;20.15;49.24;101899.66;5086574;28;20024;-54
2022/06/03 08:03:19;;;;;;;1.17;1.08;;;;;;;20.38;49.43;101927.91;5108025;28;20032;-52
2022/06/03 08:05:54;;;;;;;2.38;1.35;;;;;;;20.39;49.27;101932.31;5090190;28;20069;-52
2022/06/03 08:11:16;;;;;;;1.73;1.38;;;;;;;20.42;49.46;101923.88;5094315;28;20039;-49
2022/06/03 08:13:44;;;;;;;1.88;1.40;;;;;;;20.44;49.27;101918.34;5108067;27;20024;-51
2022/06/03 08:16:25;;;;;;;2.30;1.40;;;;;;;20.45;49.17;101920.88;5092111;28;20050;-52
2022/06/03 08:18:51;;;;;;;1.83;1.23;;;;;;;20.45;48.85;101915.50;5087400;28;20032;-53
2022/06/03 08:21:27;;;;;;;2.03;1.23;;;;;;;20.47;48.85;101910.78;5087174;28;20062;-54
2022/06/03 08:23:56;;;;;;;1.50;1.13;;;;;;;20.49;48.88;101904.41;5106337;27;20083;-55
2022/06/03 08:26:23;;;;;;;1.83;1.15;;;;;;;20.49;48.60;101905.25;5087836;28;20470;-49
2022/06/03 08:28:54;;;;;;;2.20;1.50;;;;;;;20.51;48.67;101897.84;5083686;28;20382;-50
2022/06/03 08:31:23;;;;;;;3.22;2.25;;;;;;;20.53;48.63;101905.81;5108170;28;20047;-50
2022/06/03 08:33:52;;;;;;;1.15;0.90;;;;;;;20.52;48.58;101902.25;5110416;28;20023;-50
2022/06/03 08:36:20;;;;;;;1.25;1.10;;;;;;;20.55;48.15;101909.19;5087661;28;20059;-52
2022/06/03 08:38:53;;;;;;;2.10;1.30;;;;;;;20.54;48.24;101897.53;5089147;28;20027;-52
2022/06/03 08:41:38;;;;;;;1.70;1.20;;;;;;;20.56;48.49;101906.34;5083176;28;20077;-50
2022/06/03 08:44:07;;;;;;;1.48;1.13;;;;;;;20.57;48.36;101899.94;5092637;28;20114;-52
2022/06/03 08:47:08;;;;;;;1.35;1.05;;;;;;;20.58;48.30;101908.88;5104715;28;20035;-53
2022/06/03 08:50:06;;;;;;;1.48;1.05;;;;;;;20.59;48.12;101910.56;5067499;28;20032;-55
2022/06/03 08:52:40;;;;;;;12.15;2.15;;;;;;;20.59;48.35;101897.06;5083299;28;20036;-58
2022/06/03 08:55:31;;;;;;;5.43;2.30;;;;;;;20.59;47.90;101897.91;5094405;28;20027;-50
2022/06/03 08:57:59;;;;;;;5.97;1.83;;;;;;;20.62;47.87;101894.06;5105761;28;20036;-58
2022/06/03 09:00:41;;;;;;;5.38;1.80;;;;;;;20.64;48.15;101890.19;5087259;28;20023;-52
2022/06/03 09:03:12;;;;;;;4.38;1.30;;;;;;;20.66;47.79;101885.47;5094147;28;20054;-54
2022/06/03 09:05:43;;;;;;;3.63;1.23;;;;;;;20.66;47.94;101880.06;5085537;28;20049;-53
2022/06/03 09:08:29;;;;;;;4.22;1.38;;;;;;;20.69;48.10;101865.41;5104621;28;20085;-54
2022/06/03 09:11:00;;;;;;;4.38;1.17;;;;;;;20.66;47.84;101860.31;5110594;28;20016;-59
2022/06/03 09:13:33;;;;;;;4.05;1.83;;;;;;;20.69;48.04;101857.31;5087060;28;20020;-49
2022/06/03 09:15:59;;;;;;;2.63;1.42;;;;;;;20.71;47.64;101863.38;5105232;28;20027;-50
2022/06/03 09:18:32;;;;;;;3.53;1.80;;;;;;;20.70;47.96;101865.25;5105274;28;20437;-49
2022/06/03 09:21:08;;;;;;;2.78;1.23;;;;;;;20.72;48.11;101867.78;5109274;28;20043;-48
2022/06/03 09:23:42;;;;;;;4.28;1.55;;;;;;;20.71;47.77;101866.09;5109384;28;20100;-52
2022/06/03 09:26:16;;;;;;;5.25;1.40;;;;;;;20.72;47.91;101867.78;5090176;28;20054;-50
2022/06/03 09:28:42;;;;;;;2.55;1.15;;;;;;;20.72;47.57;101867.78;5094598;28;20035;-59
2022/06/03 09:31:09;;;;;;;2.60;1.40;;;;;;;20.74;47.79;101873.03;5087603;28;20031;-55
2022/06/03 09:33:36;;;;;;;3.42;1.30;;;;;;;20.74;47.72;101864.94;5085523;28;20710;-54
2022/06/03 09:36:05;;;;;;;1.58;1.10;;;;;;;20.74;47.77;101857.69;5109047;28;20028;-54
2022/06/03 09:38:39;;;;;;;4.47;1.02;;;;;;;20.72;47.96;101859.66;5107083;28;20023;-55
2022/06/03 09:41:05;;;;;;;2.83;1.40;;;;;;;20.75;47.90;101856.66;5087474;28;20079;-56
2022/06/03 09:43:34;;;;;;;2.42;1.40;;;;;;;20.77;47.67;101853.78;5087325;28;20024;-53
2022/06/03 09:46:01;;;;;;;2.00;1.30;;;;;;;20.77;47.90;101867.31;5095810;28;20451;-52
2022/06/03 09:48:30;;;;;;;6.30;1.23;;;;;;;20.77;47.58;101867.31;5106681;28;20031;-52
2022/06/03 09:50:56;;;;;;;;;;;;;;;20.78;47.60;101869.03;5114287;28;20019;-55
2022/06/03 09:53:25;;;;;;;1.92;1.23;;;;;;;20.73;47.71;101858.69;5093289;28;19994;-53
2022/06/03 09:55:53;;;;;;;3.58;1.35;;;;;;;20.79;47.72;101874.25;5110712;28;20088;-52
2022/06/03 09:58:20;;;;;;;;;;;;;;;20.79;47.56;101868.00;5089020;28;20074;-54
2022/06/03 10:00:48;;;;;;;2.25;1.10;;;;;;;20.79;47.39;101866.16;5087130;28;19927;-53
2022/06/03 10:03:14;;;;;;;3.33;1.30;;;;;;;20.79;47.52;101876.13;5094580;28;20027;-54
2022/06/03 10:05:40;;;;;;;1.95;1.50;;;;;;;20.79;47.53;101876.97;5091413;28;20020;-55
2022/06/03 10:08:07;;;;;;;1.63;1.08;;;;;;;20.80;47.49;101875.94;5092674;28;20040;-55
2022/06/03 10:13:17;;;;;;;2.20;1.40;;;;;;;20.83;47.55;101869.41;5110834;28;20035;-53
2022/06/03 10:15:56;;;;;;;2.42;1.20;;;;;;;20.84;47.47;101876.50;5112347;27;20036;-54
2022/06/03 10:18:35;;;;;;;2.05;1.20;;;;;;;20.84;47.49;101888.16;5096670;28;20020;-53
2022/06/03 10:21:20;;;;;;;3.70;1.00;;;;;;;20.85;47.86;101879.03;5105417;28;20034;-56
2022/06/03 10:23:52;;;;;;;3.53;1.80;;;;;;;20.86;47.61;101872.63;5110318;27;20049;-57
2022/06/03 10:26:21;;;;;;;2.92;1.00;;;;;;;20.83;47.55;101853.19;5111566;28;20039;-53
2022/06/03 10:28:47;;;;;;;;;;;;;;;20.88;47.77;101859.78;5119136;28;20027;-55
2022/06/03 10:31:15;;;;;;;2.63;1.33;;;;;;;20.89;47.72;101852.53;5115142;28;19914;-55
2022/06/03 10:33:54;;;;;;;2.15;1.27;;;;;;;20.89;47.28;101853.38;5107475;27;20024;-54
2022/06/03 10:36:24;;;;;;;1.70;1.10;;;;;;;20.89;47.77;101841.72;5109595;28;20024;-53
2022/06/03 10:38:51;;;;;;;3.50;1.20;;;;;;;20.90;47.71;101838.88;5115315;28;20035;-55
2022/06/03 10:41:16;;;;;;;1.80;1.10;;;;;;;20.91;47.44;101843.25;5113670;28;20491;-55
2022/06/03 10:43:42;;;;;;;1.73;1.25;;;;;;;20.93;47.77;101837.69;5117913;27;20020;-54
2022/06/03 10:46:15;;;;;;;1.75;1.00;;;;;;;20.94;47.96;101839.38;5117053;27;20071;-56
2022/06/03 10:48:41;;;;;;;1.48;1.00;;;;;;;20.93;47.79;101830.41;5110661;28;20055;-51
2022/06/03 11:02:35;;;;;;;2.45;1.05;;;;;;;20.99;47.38;101806.47;5109053;28;20050;-52
2022/06/03 11:05:26;;;;;;;2.10;0.90;;;;;;;21.02;47.71;101800.72;5096142;28;20032;-52
2022/06/03 11:08:04;;;;;;;1.20;1.00;;;;;;;21.02;47.74;101806.97;5109042;28;20028;-54
2022/06/03 11:10:36;;;;;;;2.45;1.00;;;;;;;21.02;47.97;101800.72;5113233;28;20019;-57
2022/06/03 11:13:04;;;;;;;1.95;1.10;;;;;;;21.04;47.58;101801.44;5104608;28;20046;-58
2022/06/03 11:15:35;;;;;;;1.35;0.90;;;;;;;21.06;47.75;101796.69;5107531;28;20499;-57
2022/06/03 11:18:12;;;;;;;1.35;0.90;;;;;;;21.06;48.01;101784.03;5105806;28;20016;-60
2022/06/03 11:20:39;;;;;;;2.42;1.00;;;;;;;21.06;47.76;101784.03;5106682;27;20040;-54
2022/06/03 11:23:07;;;;;;;2.25;1.00;;;;;;;21.08;47.88;101783.88;5107590;28;20028;-54
2022/06/03 11:25:34;;;;;;;1.50;1.05;;;;;;;21.09;48.02;101777.44;5105371;28;20028;-52
2022/06/03 11:28:07;;;;;;;1.33;0.80;;;;;;;21.10;47.61;101777.28;5085366;28;20088;-53
2022/06/03 11:30:43;;;;;;;2.47;1.00;;;;;;;21.12;47.56;101783.41;5115373;28;20095;-53
2022/06/03 11:33:16;;;;;;;1.80;0.93;;;;;;;21.14;47.76;101783.22;5089544;28;20036;-50
2022/06/03 11:35:51;;;;;;;1.92;0.90;;;;;;;21.14;48.01;101786.75;5090781;28;20034;-50
2022/06/03 11:38:24;;;;;;;1.25;0.90;;;;;;;21.14;48.01;101786.75;5093542;28;20028;-51
2022/06/03 11:40:54;;;;;;;2.53;1.55;;;;;;;21.16;48.07;101787.47;5088640;28;20436;-54
2022/06/03 11:43:24;;;;;;;1.48;0.82;;;;;;;21.17;47.69;101782.91;5091092;28;20114;-52
2022/06/03 11:45:55;;;;;;;3.92;1.33;;;;;;;21.11;47.91;101776.28;5104827;28;20020;-53
2022/06/03 11:48:39;;;;;;;1.20;1.10;;;;;;;21.18;47.72;101777.31;5093047;28;20034;-52
2022/06/03 11:51:06;;;;;;;1.27;0.98;;;;;;;21.20;47.67;101782.59;5110575;28;20564;-54
2022/06/03 11:53:34;;;;;;;1.55;1.00;;;;;;;21.19;48.02;101776.31;5111609;28;20027;-53
2022/06/03 11:56:02;;;;;;;2.05;1.00;;;;;;;21.19;47.75;101778.16;5088963;28;20062;-54
2022/06/03 11:58:49;;;;;;;1.92;1.15;;;;;;;21.20;47.83;101778.03;5089804;28;20023;-56
2022/06/03 12:01:22;;;;;;;1.50;1.10;;;;;;;21.19;47.83;101779.00;5108573;28;20024;-55
2022/06/03 12:04:04;;;;;;;1.05;0.82;;;;;;;21.13;47.87;101773.41;5110937;28;20051;-53
2022/06/03 12:06:41;;;;;;;1.63;1.20;;;;;;;21.20;48.12;101788.84;5104721;28;20470;-53
2022/06/03 12:09:20;;;;;;;1.65;1.30;;;;;;;21.21;47.82;101782.41;5095119;28;20031;-56
2022/06/03 12:15:28;;;;;;;1.40;1.13;;;;;;;21.21;47.92;101774.28;5105560;28;20095;-51
2022/06/03 12:17:53;;;;;;;1.77;1.65;;;;;;;21.21;48.16;101782.41;5106881;28;20028;-51
2022/06/03 12:20:30;;;;;;;0.82;0.82;;;;;;;21.22;48.01;101783.25;5109653;27;20051;-52
2022/06/03 12:22:57;;;;;;;2.75;1.00;;;;;;;21.20;48.02;101780.72;5109749;28;20023;-51
2022/06/03 12:25:31;;;;;;;1.70;1.27;;;;;;;21.21;47.71;101782.41;5106640;28;20032;-52
2022/06/03 12:27:57;;;;;;;1.48;1.10;;;;;;;21.21;47.66;101782.41;5109000;27;20024;-50
2022/06/03 12:30:42;;;;;;;1.30;1.20;;;;;;;21.22;47.96;101778.69;5093268;28;20087;-49
2022/06/03 12:33:19;;;;;;;2.08;0.98;;;;;;;21.21;47.80;101774.28;5085952;28;20122;-53
2022/06/03 12:35:47;;;;;;;1.75;1.00;;;;;;;21.22;47.96;101773.28;5108199;27;20015;-56
2022/06/03 12:38:18;;;;;;;1.50;1.10;;;;;;;21.23;47.56;101769.56;5101709;28;20030;-59
2022/06/03 12:40:45;;;;;;;1.65;1.10;;;;;;;21.24;47.52;101773.13;5108364;27;20143;-54
2022/06/03 12:43:28;;;;;;;0.88;0.82;;;;;;;21.23;47.70;101768.72;5085945;28;20036;-56
2022/06/03 12:46:04;;;;;;;1.90;1.23;;;;;;;21.24;47.68;101775.84;5108013;28;20777;-56
2022/06/03 12:48:48;;;;;;;1.23;1.00;;;;;;;21.26;48.15;101784.63;5108127;28;20059;-56
2022/06/03 12:51:32;;;;;;;1.90;1.17;;;;;;;21.26;48.20;101781.06;5117467;28;20024;-52